createdAt,value
2019-03-15T00:00:09.249Z,7.70
2019-03-15T00:01:09.222Z,7.66
2019-03-15T00:02:09.208Z,7.66
2019-03-15T00:03:09.176Z,7.70
2019-03-15T00:04:09.158Z,7.66
2019-03-15T00:05:09.131Z,7.67
2019-03-15T00:06:09.104Z,7.64
2019-03-15T00:07:09.077Z,7.67
2019-03-15T00:08:09.049Z,7.66
2019-03-15T00:09:09.026Z,7.64
2019-03-15T00:10:09.005Z,7.70
2019-03-15T00:11:08.994Z,7.64
2019-03-15T00:12:08.972Z,7.64
2019-03-15T00:13:08.926Z,7.66
2019-03-15T00:14:08.910Z,7.66
2019-03-15T00:15:09.035Z,7.69
2019-03-15T00:16:08.932Z,7.66
2019-03-15T00:17:08.825Z,7.70
2019-03-15T00:18:08.802Z,7.67
2019-03-15T00:19:08.778Z,7.66
2019-03-15T00:20:08.751Z,7.69
2019-03-15T00:21:08.726Z,7.70
2019-03-15T00:22:08.701Z,7.74
2019-03-15T00:23:08.688Z,7.70
2019-03-15T00:24:08.654Z,7.78
2019-03-15T00:25:08.636Z,7.67
2019-03-15T00:26:08.610Z,7.69
2019-03-15T00:27:08.609Z,7.80
2019-03-15T00:28:08.551Z,7.83
2019-03-15T00:29:08.540Z,7.77
2019-03-15T00:30:08.515Z,7.80
2019-03-15T00:31:08.487Z,7.77
2019-03-15T00:32:08.454Z,7.75
2019-03-15T00:33:08.427Z,7.83
2019-03-15T00:34:08.425Z,7.80
2019-03-15T00:35:09.133Z,7.83
2019-03-15T00:36:08.353Z,7.77
2019-03-15T00:37:08.338Z,7.77
2019-03-15T00:38:08.311Z,7.77
2019-03-15T00:39:08.281Z,7.74
2019-03-15T00:40:08.253Z,7.77
2019-03-15T00:41:08.234Z,7.88
2019-03-15T00:42:08.466Z,7.85
2019-03-15T00:43:08.180Z,7.83
2019-03-15T00:44:08.154Z,7.90
2019-03-15T00:45:08.527Z,7.77
2019-03-15T00:46:08.108Z,7.74
2019-03-15T00:47:08.096Z,7.84
2019-03-15T00:48:08.053Z,7.80
2019-03-15T00:49:08.030Z,7.78
2019-03-15T00:50:08.003Z,7.77
2019-03-15T00:51:07.981Z,7.75
2019-03-15T00:52:07.953Z,7.74
2019-03-15T00:53:07.930Z,7.75
2019-03-15T00:54:07.908Z,7.77
2019-03-15T00:55:07.882Z,7.75
2019-03-15T00:56:07.998Z,7.83
2019-03-15T00:57:07.831Z,7.80
2019-03-15T00:58:07.805Z,7.84
2019-03-15T00:59:07.784Z,7.83
2019-03-15T01:00:07.755Z,7.77
2019-03-15T01:01:07.731Z,7.77
2019-03-15T01:02:07.705Z,7.77
2019-03-15T01:03:07.681Z,7.77
2019-03-15T01:04:09.438Z,7.80
2019-03-15T01:05:07.638Z,7.80
2019-03-15T01:06:07.605Z,7.88
2019-03-15T01:07:07.606Z,7.77
2019-03-15T01:08:07.554Z,7.75
2019-03-15T01:09:07.532Z,7.78
2019-03-15T01:10:07.508Z,7.81
2019-03-15T01:11:07.481Z,7.80
2019-03-15T01:12:07.456Z,7.81
2019-03-15T01:13:07.438Z,7.75
2019-03-15T01:14:07.414Z,7.80
2019-03-15T01:15:07.381Z,7.83
2019-03-15T01:16:07.358Z,7.77
2019-03-15T01:17:07.330Z,7.75
2019-03-15T01:18:07.322Z,7.74
2019-03-15T01:19:07.290Z,7.75
2019-03-15T01:20:07.258Z,7.72
2019-03-15T01:21:07.243Z,7.77
2019-03-15T01:22:07.215Z,7.83
2019-03-15T01:23:07.186Z,7.83
2019-03-15T01:24:07.156Z,7.77
2019-03-15T01:25:07.138Z,7.75
2019-03-15T01:26:07.107Z,7.77
2019-03-15T01:27:07.092Z,7.75
2019-03-15T01:28:07.056Z,7.74
2019-03-15T01:29:07.029Z,7.84
2019-03-15T01:30:07.005Z,7.81
2019-03-15T01:31:06.980Z,7.83
2019-03-15T01:32:06.957Z,7.83
2019-03-15T01:33:06.945Z,7.74
2019-03-15T01:34:06.906Z,7.83
2019-03-15T01:35:06.884Z,7.80
2019-03-15T01:36:06.857Z,7.72
2019-03-15T01:37:06.831Z,7.75
2019-03-15T01:38:06.805Z,7.74
2019-03-15T01:39:06.781Z,7.72
2019-03-15T01:40:06.753Z,7.69
2019-03-15T01:41:06.730Z,7.78
2019-03-15T01:42:06.705Z,7.70
2019-03-15T01:43:06.683Z,7.74
2019-03-15T01:44:06.652Z,7.77
2019-03-15T01:45:06.631Z,7.70
2019-03-15T01:46:06.612Z,7.74
2019-03-15T01:47:06.579Z,7.75
2019-03-15T01:48:06.555Z,7.75
2019-03-15T01:49:06.578Z,7.70
2019-03-15T01:50:06.503Z,7.72
2019-03-15T01:51:06.488Z,7.78
2019-03-15T01:52:07.428Z,7.75
2019-03-15T01:53:06.436Z,7.74
2019-03-15T01:54:06.402Z,7.74
2019-03-15T01:55:06.432Z,7.72
2019-03-15T01:56:06.361Z,7.77
2019-03-15T01:57:06.335Z,7.69
2019-03-15T01:58:06.302Z,7.72
2019-03-15T01:59:06.283Z,7.77
2019-03-15T02:00:06.268Z,7.75
2019-03-15T02:01:06.244Z,7.72
2019-03-15T02:02:06.208Z,7.70
2019-03-15T02:03:06.178Z,7.77
2019-03-15T02:04:06.151Z,7.75
2019-03-15T02:05:06.132Z,7.75
2019-03-15T02:06:06.104Z,7.74
2019-03-15T02:07:06.084Z,7.75
2019-03-15T02:08:06.053Z,7.77
2019-03-15T02:09:09.140Z,7.77
2019-03-15T02:10:06.008Z,7.74
2019-03-15T02:11:05.989Z,7.70
2019-03-15T02:12:05.957Z,7.77
2019-03-15T02:13:05.953Z,7.77
2019-03-15T02:14:05.910Z,7.78
2019-03-15T02:15:05.878Z,7.83
2019-03-15T02:16:05.857Z,7.81
2019-03-15T02:17:05.827Z,7.90
2019-03-15T02:18:05.811Z,7.85
2019-03-15T02:19:05.775Z,7.87
2019-03-15T02:20:05.750Z,7.77
2019-03-15T02:21:05.730Z,7.90
2019-03-15T02:22:05.715Z,7.87
2019-03-15T02:23:05.675Z,7.83
2019-03-15T02:24:05.653Z,7.87
2019-03-15T02:25:05.627Z,7.88
2019-03-15T02:26:05.603Z,7.93
2019-03-15T02:27:05.578Z,7.91
2019-03-15T02:28:05.554Z,7.93
2019-03-15T02:29:05.542Z,7.87
2019-03-15T02:30:05.508Z,7.88
2019-03-15T02:31:05.621Z,7.87
2019-03-15T02:32:05.449Z,7.81
2019-03-15T02:33:06.038Z,7.75
2019-03-15T02:34:05.450Z,7.75
2019-03-15T02:35:05.386Z,7.81
2019-03-15T02:36:05.379Z,7.75
2019-03-15T02:37:06.341Z,7.75
2019-03-15T02:38:05.313Z,7.74
2019-03-15T02:39:05.281Z,7.77
2019-03-15T02:40:05.252Z,7.75
2019-03-15T02:41:05.467Z,7.78
2019-03-15T02:42:05.199Z,7.81
2019-03-15T02:43:05.186Z,7.88
2019-03-15T02:44:05.150Z,7.96
2019-03-15T02:45:06.233Z,7.90
2019-03-15T02:46:05.331Z,7.88
2019-03-15T02:47:05.085Z,7.87
2019-03-15T02:48:05.049Z,7.88
2019-03-15T02:49:05.030Z,7.93
2019-03-15T02:50:05.003Z,7.84
2019-03-15T02:51:04.986Z,7.90
2019-03-15T02:52:04.951Z,7.90
2019-03-15T02:53:04.932Z,7.93
2019-03-15T02:54:04.902Z,7.91
2019-03-15T02:55:04.876Z,7.85
2019-03-15T02:56:04.949Z,7.90
2019-03-15T02:57:05.129Z,7.84
2019-03-15T02:58:04.808Z,7.87
2019-03-15T02:59:04.782Z,7.88
2019-03-15T03:00:04.752Z,7.78
2019-03-15T03:01:04.728Z,7.77
2019-03-15T03:02:04.700Z,7.77
2019-03-15T03:03:04.676Z,7.80
2019-03-15T03:04:04.657Z,7.81
2019-03-15T03:05:04.642Z,7.81
2019-03-15T03:06:04.606Z,7.78
2019-03-15T03:07:04.576Z,7.90
2019-03-15T03:08:04.559Z,7.87
2019-03-15T03:09:04.527Z,7.70
2019-03-15T03:10:04.505Z,7.85
2019-03-15T03:11:04.477Z,7.81
2019-03-15T03:12:04.450Z,7.78
2019-03-15T03:13:04.428Z,7.78
2019-03-15T03:14:04.588Z,7.81
2019-03-15T03:15:04.381Z,7.74
2019-03-15T03:16:04.349Z,7.90
2019-03-15T03:17:04.334Z,7.88
2019-03-15T03:18:04.314Z,7.87
2019-03-15T03:19:04.274Z,7.90
2019-03-15T03:20:04.250Z,7.87
2019-03-15T03:21:04.225Z,7.91
2019-03-15T03:22:04.200Z,7.84
2019-03-15T03:23:04.258Z,7.88
2019-03-15T03:24:04.150Z,7.85
2019-03-15T03:25:04.125Z,7.90
2019-03-15T03:26:04.099Z,7.87
2019-03-15T03:27:04.080Z,7.90
2019-03-15T03:28:04.051Z,7.81
2019-03-15T03:29:04.066Z,7.91
2019-03-15T03:30:04.006Z,7.83
2019-03-15T03:31:04.003Z,7.87
2019-03-15T03:32:03.959Z,7.91
2019-03-15T03:33:03.953Z,7.84
2019-03-15T03:34:03.911Z,7.88
2019-03-15T03:35:03.929Z,7.93
2019-03-15T03:36:03.851Z,7.88
2019-03-15T03:37:03.835Z,7.95
2019-03-15T03:38:03.802Z,7.93
2019-03-15T03:39:03.779Z,7.90
2019-03-15T03:40:03.752Z,7.93
2019-03-15T03:41:03.727Z,7.93
2019-03-15T03:42:03.701Z,7.90
2019-03-15T03:43:03.678Z,7.91
2019-03-15T03:44:03.658Z,7.93
2019-03-15T03:45:03.627Z,7.91
2019-03-15T03:46:03.614Z,7.91
2019-03-15T03:47:03.575Z,7.91
2019-03-15T03:48:03.577Z,7.93
2019-03-15T03:49:03.530Z,7.93
2019-03-15T03:50:03.507Z,7.95
2019-03-15T03:51:03.478Z,7.91
2019-03-15T03:52:03.451Z,7.98
2019-03-15T03:53:03.428Z,7.93
2019-03-15T03:54:04.291Z,8.02
2019-03-15T03:55:03.377Z,7.88
2019-03-15T03:56:03.352Z,7.93
2019-03-15T03:57:03.350Z,7.88
2019-03-15T03:58:03.303Z,7.90
2019-03-15T03:59:03.287Z,7.96
2019-03-15T04:00:03.255Z,7.85
2019-03-15T04:01:03.227Z,8.03
2019-03-15T04:02:03.215Z,7.90
2019-03-15T04:03:03.178Z,7.91
2019-03-15T04:04:03.154Z,7.95
2019-03-15T04:05:03.131Z,7.93
2019-03-15T04:06:03.107Z,7.88
2019-03-15T04:07:03.084Z,7.95
2019-03-15T04:08:03.127Z,7.87
2019-03-15T04:09:03.036Z,7.95
2019-03-15T04:10:05.439Z,7.91
2019-03-15T04:11:02.983Z,7.87
2019-03-15T04:12:02.963Z,7.84
2019-03-15T04:13:02.931Z,7.88
2019-03-15T04:14:02.914Z,7.96
2019-03-15T04:15:02.883Z,7.81
2019-03-15T04:16:02.857Z,7.85
2019-03-15T04:17:02.844Z,7.91
2019-03-15T04:18:02.807Z,7.83
2019-03-15T04:19:02.792Z,7.91
2019-03-15T04:20:02.758Z,7.88
2019-03-15T04:21:02.732Z,7.87
2019-03-15T04:22:02.708Z,7.91
2019-03-15T04:23:02.684Z,7.84
2019-03-15T04:24:02.658Z,7.85
2019-03-15T04:25:02.635Z,7.85
2019-03-15T04:26:02.722Z,7.75
2019-03-15T04:27:02.584Z,7.74
2019-03-15T04:28:02.561Z,7.81
2019-03-15T04:29:02.542Z,7.78
2019-03-15T04:30:02.521Z,7.78
2019-03-15T04:31:02.492Z,7.85
2019-03-15T04:32:02.464Z,7.80
2019-03-15T04:33:02.443Z,7.84
2019-03-15T04:34:02.413Z,7.87
2019-03-15T04:35:02.439Z,7.88
2019-03-15T04:36:02.362Z,7.84
2019-03-15T04:37:02.339Z,7.91
2019-03-15T04:38:02.319Z,7.93
2019-03-15T04:39:02.294Z,7.95
2019-03-15T04:40:02.268Z,7.98
2019-03-15T04:41:02.245Z,7.98
2019-03-15T04:42:02.230Z,7.91
2019-03-15T04:43:02.199Z,7.95
2019-03-15T04:44:02.166Z,7.87
2019-03-15T04:45:02.142Z,7.95
2019-03-15T04:46:02.121Z,7.98
2019-03-15T04:47:02.099Z,7.91
2019-03-15T04:48:02.067Z,7.91
2019-03-15T04:49:02.041Z,7.96
2019-03-15T04:50:02.033Z,7.91
2019-03-15T04:51:01.994Z,7.93
2019-03-15T04:52:01.969Z,7.98
2019-03-15T04:53:01.944Z,7.96
2019-03-15T04:54:01.922Z,7.95
2019-03-15T04:55:01.895Z,7.95
2019-03-15T04:56:01.873Z,7.95
2019-03-15T04:57:01.846Z,7.96
2019-03-15T04:58:01.822Z,7.93
2019-03-15T04:59:01.820Z,7.93
2019-03-15T05:00:01.817Z,7.91
2019-03-15T05:01:01.760Z,7.93
2019-03-15T05:02:01.722Z,7.90
2019-03-15T05:03:01.705Z,7.93
2019-03-15T05:04:01.683Z,7.85
2019-03-15T05:05:01.650Z,7.90
2019-03-15T05:06:03.593Z,8.01
2019-03-15T05:07:01.601Z,7.88
2019-03-15T05:08:01.579Z,7.93
2019-03-15T05:09:01.570Z,7.93
2019-03-15T05:10:01.540Z,7.99
2019-03-15T05:11:01.518Z,7.96
2019-03-15T05:12:01.487Z,7.99
2019-03-15T05:13:01.453Z,7.90
2019-03-15T05:14:01.433Z,7.98
2019-03-15T05:15:01.490Z,8.01
2019-03-15T05:16:01.382Z,7.93
2019-03-15T05:17:01.358Z,8.01
2019-03-15T05:18:01.332Z,8.02
2019-03-15T05:19:01.330Z,8.08
2019-03-15T05:20:01.298Z,8.09
2019-03-15T05:21:01.260Z,8.05
2019-03-15T05:22:01.241Z,7.98
2019-03-15T05:23:01.221Z,7.95
2019-03-15T05:24:01.183Z,8.02
2019-03-15T05:25:01.164Z,7.99
2019-03-15T05:26:01.139Z,8.03
2019-03-15T05:27:01.123Z,8.08
2019-03-15T05:28:01.114Z,8.03
2019-03-15T05:29:01.063Z,8.14
2019-03-15T05:30:01.040Z,8.03
2019-03-15T05:31:01.016Z,8.09
2019-03-15T05:32:01.012Z,8.08
2019-03-15T05:33:00.969Z,8.03
2019-03-15T05:34:00.941Z,8.11
2019-03-15T05:35:00.916Z,8.06
2019-03-15T05:36:00.892Z,8.08
2019-03-15T05:37:00.874Z,8.13
2019-03-15T05:38:00.849Z,8.13
2019-03-15T05:39:00.823Z,8.06
2019-03-15T05:40:00.831Z,8.05
2019-03-15T05:41:00.780Z,8.09
2019-03-15T05:42:00.747Z,8.16
2019-03-15T05:43:00.728Z,8.16
2019-03-15T05:44:00.698Z,8.14
2019-03-15T05:45:00.672Z,8.09
2019-03-15T05:46:00.648Z,8.06
2019-03-15T05:47:00.626Z,8.09
2019-03-15T05:48:00.605Z,8.06
2019-03-15T05:49:00.594Z,8.20
2019-03-15T05:50:00.562Z,8.17
2019-03-15T05:51:00.533Z,8.18
2019-03-15T05:52:00.523Z,8.20
2019-03-15T05:53:00.486Z,8.06
2019-03-15T05:54:00.467Z,8.13
2019-03-15T05:55:00.438Z,8.18
2019-03-15T05:56:00.406Z,8.16
2019-03-15T05:57:00.554Z,8.20
2019-03-15T05:58:00.358Z,8.17
2019-03-15T05:59:00.335Z,8.18
2019-03-15T06:00:00.402Z,8.13
2019-03-15T06:01:00.300Z,8.11
2019-03-15T06:02:00.259Z,8.18
2019-03-15T06:03:00.240Z,8.13
2019-03-15T06:04:00.215Z,8.20
2019-03-15T06:05:00.414Z,8.14
2019-03-15T06:06:00.165Z,8.09
2019-03-15T06:07:00.139Z,8.24
2019-03-15T06:08:00.115Z,8.26
2019-03-15T06:09:00.097Z,8.18
2019-03-15T06:10:00.077Z,8.20
2019-03-15T06:11:00.087Z,8.13
2019-03-15T06:12:00.030Z,8.14
2019-03-15T06:13:00.006Z,8.17
2019-03-15T06:13:59.972Z,8.13
2019-03-15T06:14:59.950Z,8.14
2019-03-15T06:15:59.919Z,8.20
2019-03-15T06:16:59.896Z,8.18
2019-03-15T06:17:59.874Z,8.06
2019-03-15T06:18:59.847Z,8.20
2019-03-15T06:19:59.831Z,8.17
2019-03-15T06:20:59.800Z,8.21
2019-03-15T06:21:59.786Z,8.17
2019-03-15T06:22:59.776Z,8.18
2019-03-15T06:23:59.726Z,8.16
2019-03-15T06:24:59.709Z,8.18
2019-03-15T06:25:59.678Z,8.20
2019-03-15T06:26:59.653Z,8.20
2019-03-15T06:27:59.637Z,8.21
2019-03-15T06:29:01.655Z,8.17
2019-03-15T06:29:59.581Z,8.21
2019-03-15T06:30:59.558Z,8.17
2019-03-15T06:31:59.550Z,8.18
2019-03-15T06:32:59.517Z,8.20
2019-03-15T06:33:59.488Z,8.20
2019-03-15T06:34:59.468Z,8.24
2019-03-15T06:35:59.452Z,8.34
2019-03-15T06:36:59.423Z,8.28
2019-03-15T06:37:59.400Z,8.27
2019-03-15T06:38:59.370Z,8.31
2019-03-15T06:39:59.348Z,8.31
2019-03-15T06:41:00.347Z,8.28
2019-03-15T06:41:59.293Z,8.23
2019-03-15T06:42:59.268Z,8.31
2019-03-15T06:43:59.246Z,8.27
2019-03-15T06:44:59.222Z,8.18
2019-03-15T06:45:59.200Z,8.24
2019-03-15T06:46:59.190Z,8.21
2019-03-15T06:47:59.147Z,8.31
2019-03-15T06:48:59.137Z,8.34
2019-03-15T06:49:59.098Z,8.35
2019-03-15T06:50:59.076Z,8.36
2019-03-15T06:51:59.050Z,8.31
2019-03-15T06:52:59.030Z,8.36
2019-03-15T06:54:10.889Z,8.35
2019-03-15T06:54:59.975Z,8.45
2019-03-15T06:55:58.974Z,8.42
2019-03-15T06:56:58.931Z,8.44
2019-03-15T06:57:58.912Z,8.44
2019-03-15T06:58:58.883Z,8.46
2019-03-15T06:59:59.747Z,8.46
2019-03-15T07:00:58.840Z,8.42
2019-03-15T07:01:58.811Z,8.49
2019-03-15T07:02:58.872Z,8.44
2019-03-15T07:03:58.763Z,8.44
2019-03-15T07:04:58.742Z,8.42
2019-03-15T07:05:58.717Z,8.50
2019-03-15T07:06:58.696Z,8.34
2019-03-15T07:07:58.673Z,8.46
2019-03-15T07:08:58.646Z,8.45
2019-03-15T07:09:58.619Z,8.44
2019-03-15T07:10:58.596Z,8.45
2019-03-15T07:12:08.871Z,8.45
2019-03-15T07:12:58.545Z,8.49
2019-03-15T07:13:58.535Z,8.46
2019-03-15T07:14:58.502Z,8.45
2019-03-15T07:15:58.476Z,8.44
2019-03-15T07:16:58.453Z,8.52
2019-03-15T07:17:58.430Z,8.53
2019-03-15T07:18:58.409Z,8.50
2019-03-15T07:19:58.384Z,8.46
2019-03-15T07:20:58.356Z,8.50
2019-03-15T07:21:58.339Z,8.50
2019-03-15T07:22:58.315Z,8.42
2019-03-15T07:23:58.350Z,8.52
2019-03-15T07:24:58.270Z,8.59
2019-03-15T07:25:58.247Z,8.66
2019-03-15T07:27:11.803Z,8.71
2019-03-15T07:27:58.196Z,8.59
2019-03-15T07:28:58.179Z,8.61
2019-03-15T07:29:59.962Z,8.74
2019-03-15T07:30:58.126Z,8.71
2019-03-15T07:31:58.095Z,8.74
2019-03-15T07:32:58.079Z,8.75
2019-03-15T07:33:58.061Z,8.75
2019-03-15T07:34:58.028Z,8.71
2019-03-15T07:35:58.001Z,8.61
2019-03-15T07:36:57.984Z,8.64
2019-03-15T07:37:57.954Z,8.68
2019-03-15T07:38:57.929Z,8.69
2019-03-15T07:39:57.905Z,8.84
2019-03-15T07:40:57.882Z,8.87
2019-03-15T07:41:57.861Z,8.71
2019-03-15T07:43:01.987Z,8.69
2019-03-15T07:43:57.812Z,8.72
2019-03-15T07:44:57.793Z,8.75
2019-03-15T07:45:57.768Z,8.68
2019-03-15T07:46:57.746Z,8.69
2019-03-15T07:47:57.724Z,8.74
2019-03-15T07:48:57.698Z,8.71
2019-03-15T07:49:57.678Z,8.63
2019-03-15T07:50:57.649Z,8.69
2019-03-15T07:51:57.691Z,8.74
2019-03-15T07:52:57.602Z,8.72
2019-03-15T07:53:57.578Z,8.59
2019-03-15T07:54:57.575Z,8.56
2019-03-15T07:55:57.554Z,8.60
2019-03-15T07:56:57.506Z,8.61
2019-03-15T07:57:57.484Z,8.44
2019-03-15T07:58:57.462Z,8.52
2019-03-15T07:59:57.444Z,8.45
2019-03-15T08:00:57.526Z,8.50
2019-03-15T08:01:57.394Z,8.57
2019-03-15T08:02:57.367Z,8.59
2019-03-15T08:03:57.350Z,8.61
2019-03-15T08:04:57.318Z,8.60
2019-03-15T08:05:57.296Z,8.57
2019-03-15T08:06:57.274Z,8.49
2019-03-15T08:07:57.258Z,8.49
2019-03-15T08:08:57.224Z,8.57
2019-03-15T08:09:57.203Z,8.66
2019-03-15T08:10:57.180Z,8.68
2019-03-15T08:11:57.156Z,8.60
2019-03-15T08:12:57.140Z,8.63
2019-03-15T08:13:57.110Z,8.61
2019-03-15T08:14:57.084Z,8.57
2019-03-15T08:15:57.077Z,8.49
2019-03-15T08:16:57.061Z,8.44
2019-03-15T08:17:57.023Z,8.45
2019-03-15T08:18:56.998Z,8.60
2019-03-15T08:19:56.968Z,8.57
2019-03-15T08:20:56.944Z,8.52
2019-03-15T08:21:56.921Z,8.52
2019-03-15T08:22:56.922Z,8.61
2019-03-15T08:23:56.875Z,8.61
2019-03-15T08:24:56.852Z,8.60
2019-03-15T08:25:56.928Z,8.63
2019-03-15T08:26:56.805Z,8.61
2019-03-15T08:27:56.783Z,8.69
2019-03-15T08:28:56.759Z,8.59
2019-03-15T08:29:56.734Z,8.63
2019-03-15T08:30:56.712Z,8.46
2019-03-15T08:31:56.693Z,8.60
2019-03-15T08:33:09.489Z,8.61
2019-03-15T08:33:56.650Z,8.54
2019-03-15T08:34:56.619Z,8.49
2019-03-15T08:35:56.597Z,8.46
2019-03-15T08:36:56.573Z,8.49
2019-03-15T08:37:56.550Z,8.39
2019-03-15T08:38:56.527Z,8.39
2019-03-15T08:39:56.510Z,8.53
2019-03-15T08:40:56.481Z,8.57
2019-03-15T08:41:56.457Z,8.53
2019-03-15T08:42:56.437Z,8.45
2019-03-15T08:43:56.418Z,8.53
2019-03-15T08:44:56.395Z,8.46
2019-03-15T08:45:56.364Z,8.61
2019-03-15T08:46:56.386Z,8.59
2019-03-15T08:47:56.326Z,8.63
2019-03-15T08:48:56.303Z,8.46
2019-03-15T08:49:56.273Z,8.64
2019-03-15T08:50:56.248Z,8.68
2019-03-15T08:52:03.742Z,8.61
2019-03-15T08:52:56.201Z,8.64
2019-03-15T08:53:56.179Z,8.49
2019-03-15T08:55:05.193Z,8.45
2019-03-15T08:55:56.130Z,8.49
2019-03-15T08:56:56.116Z,8.44
2019-03-15T08:57:56.084Z,8.44
2019-03-15T08:58:56.062Z,8.44
2019-03-15T08:59:57.755Z,8.46
2019-03-15T09:00:56.013Z,8.50
2019-03-15T09:01:56.004Z,8.60
2019-03-15T09:02:55.978Z,8.45
2019-03-15T09:03:55.945Z,8.56
2019-03-15T09:04:55.929Z,8.66
2019-03-15T09:05:55.900Z,8.60
2019-03-15T09:06:55.878Z,8.66
2019-03-15T09:07:55.864Z,8.68
2019-03-15T09:08:55.835Z,8.68
2019-03-15T09:09:55.813Z,8.71
2019-03-15T09:10:55.782Z,8.71
2019-03-15T09:11:55.764Z,8.77
2019-03-15T09:12:55.744Z,8.75
2019-03-15T09:13:55.713Z,8.75
2019-03-15T09:14:55.695Z,8.78
2019-03-15T09:15:55.689Z,8.75
2019-03-15T09:16:55.651Z,8.75
2019-03-15T09:17:55.624Z,8.81
2019-03-15T09:18:55.768Z,8.75
2019-03-15T09:19:55.579Z,8.60
2019-03-15T09:20:55.552Z,8.71
2019-03-15T09:21:55.538Z,8.72
2019-03-15T09:22:55.506Z,8.75
2019-03-15T09:23:55.619Z,8.74
2019-03-15T09:24:55.468Z,8.68
2019-03-15T09:25:55.439Z,8.60
2019-03-15T09:26:55.425Z,8.69
2019-03-15T09:27:55.395Z,8.69
2019-03-15T09:28:55.385Z,8.71
2019-03-15T09:29:55.347Z,8.69
2019-03-15T09:30:55.324Z,8.63
2019-03-15T09:32:06.161Z,8.66
2019-03-15T09:32:55.278Z,8.71
2019-03-15T09:33:55.257Z,8.77
2019-03-15T09:34:55.828Z,8.87
2019-03-15T09:35:55.206Z,8.86
2019-03-15T09:36:55.186Z,8.82
2019-03-15T09:37:55.168Z,8.86
2019-03-15T09:38:55.137Z,8.82
2019-03-15T09:39:55.169Z,8.87
2019-03-15T09:40:55.121Z,8.89
2019-03-15T09:41:55.071Z,8.92
2019-03-15T09:42:55.061Z,8.87
2019-03-15T09:43:55.023Z,8.95
2019-03-15T09:44:55.000Z,8.92
2019-03-15T09:45:55.716Z,8.90
2019-03-15T09:46:54.956Z,8.97
2019-03-15T09:47:54.983Z,8.99
2019-03-15T09:48:54.913Z,9.03
2019-03-15T09:49:54.886Z,9.05
2019-03-15T09:50:54.871Z,9.16
2019-03-15T09:51:54.861Z,9.13
2019-03-15T09:52:54.819Z,9.26
2019-03-15T09:53:54.793Z,9.27
2019-03-15T09:54:54.792Z,9.36
2019-03-15T09:55:54.749Z,9.24
2019-03-15T09:56:54.727Z,9.29
2019-03-15T09:57:54.705Z,9.21
2019-03-15T09:58:54.683Z,9.13
2019-03-15T09:59:54.664Z,9.19
2019-03-15T10:00:54.646Z,9.22
2019-03-15T10:01:54.614Z,9.26
2019-03-15T10:02:56.008Z,9.26
2019-03-15T10:03:54.569Z,9.29
2019-03-15T10:04:54.554Z,9.31
2019-03-15T10:05:54.533Z,9.26
2019-03-15T10:06:54.513Z,9.39
2019-03-15T10:07:54.484Z,9.44
2019-03-15T10:08:54.454Z,9.52
2019-03-15T10:09:54.439Z,9.55
2019-03-15T10:10:54.412Z,9.55
2019-03-15T10:11:56.485Z,9.59
2019-03-15T10:13:05.231Z,9.63
2019-03-15T10:13:54.344Z,9.64
2019-03-15T10:14:54.328Z,9.63
2019-03-15T10:15:55.604Z,9.63
2019-03-15T10:16:54.280Z,9.63
2019-03-15T10:17:54.252Z,9.70
2019-03-15T10:18:54.241Z,9.82
2019-03-15T10:19:54.216Z,9.72
2019-03-15T10:20:54.195Z,9.73
2019-03-15T10:21:54.162Z,9.72
2019-03-15T10:23:05.245Z,9.73
2019-03-15T10:23:54.143Z,9.64
2019-03-15T10:24:54.101Z,9.62
2019-03-15T10:25:54.090Z,9.74
2019-03-15T10:26:54.057Z,9.80
2019-03-15T10:27:54.027Z,9.74
2019-03-15T10:28:54.019Z,9.76
2019-03-15T10:29:53.982Z,9.76
2019-03-15T10:30:53.962Z,9.85
2019-03-15T10:31:53.940Z,9.88
2019-03-15T10:32:53.925Z,9.80
2019-03-15T10:33:53.906Z,9.81
2019-03-15T10:34:53.876Z,9.80
2019-03-15T10:35:53.852Z,9.91
2019-03-15T10:36:53.827Z,9.92
2019-03-15T10:37:53.805Z,9.92
2019-03-15T10:38:53.788Z,9.95
2019-03-15T10:39:53.849Z,10.00
2019-03-15T10:40:53.735Z,10.06
2019-03-15T10:41:53.711Z,10.05
2019-03-15T10:42:55.572Z,10.03
2019-03-15T10:43:53.683Z,10.09
2019-03-15T10:44:53.655Z,10.18
2019-03-15T10:45:53.637Z,10.13
2019-03-15T10:46:53.602Z,10.24
2019-03-15T10:47:53.582Z,10.27
2019-03-15T10:48:53.556Z,10.28
2019-03-15T10:49:53.537Z,10.24
2019-03-15T10:50:53.511Z,10.38
2019-03-15T10:51:53.497Z,10.34
2019-03-15T10:52:54.086Z,10.39
2019-03-15T10:53:55.057Z,10.45
2019-03-15T10:54:53.421Z,10.45
2019-03-15T10:56:00.059Z,10.46
2019-03-15T10:56:53.388Z,10.48
2019-03-15T10:57:53.354Z,10.49
2019-03-15T10:58:53.332Z,10.53
2019-03-15T10:59:53.310Z,10.49
2019-03-15T11:00:53.286Z,10.62
2019-03-15T11:01:53.268Z,10.61
2019-03-15T11:02:53.244Z,10.68
2019-03-15T11:03:53.219Z,10.77
2019-03-15T11:04:53.215Z,10.71
2019-03-15T11:05:53.187Z,10.79
2019-03-15T11:06:53.155Z,10.87
2019-03-15T11:07:53.139Z,10.86
2019-03-15T11:08:53.113Z,10.83
2019-03-15T11:09:53.094Z,10.89
2019-03-15T11:10:53.074Z,10.86
2019-03-15T11:11:53.054Z,10.90
2019-03-15T11:12:53.021Z,11.00
2019-03-15T11:13:55.557Z,11.05
2019-03-15T11:14:52.978Z,11.02
2019-03-15T11:15:52.958Z,11.19
2019-03-15T11:16:52.934Z,11.30
2019-03-15T11:17:52.913Z,11.33
2019-03-15T11:18:52.896Z,11.44
2019-03-15T11:19:52.868Z,11.49
2019-03-15T11:20:52.846Z,11.60
2019-03-15T11:21:52.825Z,11.65
2019-03-15T11:22:52.813Z,11.74
2019-03-15T11:23:52.783Z,11.73
2019-03-15T11:24:52.762Z,11.80
2019-03-15T11:25:52.761Z,11.81
2019-03-15T11:26:52.716Z,11.95
2019-03-15T11:27:52.700Z,11.85
2019-03-15T11:28:52.675Z,11.85
2019-03-15T11:29:52.664Z,11.85
2019-03-15T11:30:52.683Z,11.97
2019-03-15T11:31:52.611Z,11.99
2019-03-15T11:32:52.591Z,11.99
2019-03-15T11:33:52.594Z,12.03
2019-03-15T11:34:52.568Z,12.05
2019-03-15T11:35:52.525Z,12.10
2019-03-15T11:36:58.140Z,12.12
2019-03-15T11:37:52.485Z,12.11
2019-03-15T11:38:52.465Z,12.12
2019-03-15T11:39:52.469Z,12.25
2019-03-15T11:40:52.424Z,12.36
2019-03-15T11:41:52.500Z,12.32
2019-03-15T11:42:52.382Z,12.39
2019-03-15T11:43:52.355Z,12.44
2019-03-15T11:44:52.356Z,12.47
2019-03-15T11:45:52.316Z,12.51
2019-03-15T11:46:52.320Z,12.61
2019-03-15T11:48:03.175Z,12.78
2019-03-15T11:48:52.252Z,12.83
2019-03-15T11:49:52.233Z,12.87
2019-03-15T11:50:52.212Z,12.86
2019-03-15T11:51:52.192Z,13.02
2019-03-15T11:52:52.172Z,13.17
2019-03-15T11:53:52.149Z,13.42
2019-03-15T11:54:52.154Z,13.52
2019-03-15T11:55:52.109Z,13.57
2019-03-15T11:56:52.094Z,13.82
2019-03-15T11:57:52.076Z,14.12
2019-03-15T11:58:53.474Z,14.30
2019-03-15T11:59:52.028Z,14.13
2019-03-15T12:00:52.161Z,14.01
2019-03-15T12:02:03.435Z,14.12
2019-03-15T12:02:51.984Z,14.08
2019-03-15T12:03:53.384Z,14.33
2019-03-15T12:04:51.929Z,14.28
2019-03-15T12:05:51.909Z,14.34
2019-03-15T12:06:51.893Z,14.22
2019-03-15T12:07:51.868Z,14.04
2019-03-15T12:08:51.848Z,13.98
2019-03-15T12:09:51.834Z,14.12
2019-03-15T12:10:51.829Z,14.16
2019-03-15T12:11:51.803Z,14.20
2019-03-15T12:12:51.771Z,14.18
2019-03-15T12:13:51.756Z,14.13
2019-03-15T12:14:51.739Z,14.36
2019-03-15T12:15:51.765Z,14.11
2019-03-15T12:16:51.709Z,14.04
2019-03-15T12:17:51.693Z,13.87
2019-03-15T12:18:51.671Z,13.89
2019-03-15T12:19:51.652Z,13.89
2019-03-15T12:20:51.632Z,13.87
2019-03-15T12:22:05.322Z,13.86
2019-03-15T12:22:51.593Z,13.83
2019-03-15T12:23:51.568Z,13.86
2019-03-15T12:24:51.574Z,13.79
2019-03-15T12:25:51.548Z,13.68
2019-03-15T12:26:51.518Z,13.65
2019-03-15T12:27:51.494Z,13.61
2019-03-15T12:28:51.478Z,13.55
2019-03-15T12:29:51.456Z,13.47
2019-03-15T12:30:51.440Z,13.42
2019-03-15T12:31:51.429Z,13.28
2019-03-15T12:32:51.409Z,13.28
2019-03-15T12:33:51.381Z,13.33
2019-03-15T12:34:51.358Z,13.36
2019-03-15T12:35:51.341Z,13.23
2019-03-15T12:36:51.386Z,13.30
2019-03-15T12:37:51.301Z,13.39
2019-03-15T12:38:51.288Z,13.19
2019-03-15T12:39:51.267Z,13.19
2019-03-15T12:40:51.267Z,13.16
2019-03-15T12:41:51.229Z,13.11
2019-03-15T12:42:51.204Z,13.12
2019-03-15T12:43:51.190Z,13.19
2019-03-15T12:44:51.164Z,13.19
2019-03-15T12:45:51.139Z,13.24
2019-03-15T12:46:51.138Z,13.30
2019-03-15T12:47:51.103Z,13.31
2019-03-15T12:48:51.091Z,13.40
2019-03-15T12:49:51.063Z,13.37
2019-03-15T12:50:51.051Z,13.23
2019-03-15T12:51:51.023Z,13.26
2019-03-15T12:52:51.003Z,13.26
2019-03-15T12:53:50.986Z,13.24
2019-03-15T12:54:50.964Z,13.28
2019-03-15T12:55:50.952Z,13.23
2019-03-15T12:56:53.881Z,13.28
2019-03-15T12:57:50.912Z,13.43
2019-03-15T12:58:50.883Z,13.43
2019-03-15T12:59:50.864Z,13.40
2019-03-15T13:00:50.858Z,13.30
2019-03-15T13:01:50.831Z,13.39
2019-03-15T13:02:50.804Z,13.28
2019-03-15T13:03:50.784Z,13.39
2019-03-15T13:04:52.073Z,13.24
2019-03-15T13:05:50.752Z,13.30
2019-03-15T13:06:50.726Z,13.37
2019-03-15T13:07:50.703Z,13.31
2019-03-15T13:08:50.682Z,13.33
2019-03-15T13:09:50.674Z,13.28
2019-03-15T13:10:50.644Z,13.27
2019-03-15T13:11:50.622Z,13.19
2019-03-15T13:12:50.602Z,13.08